EJU68BZ EGHI-LEBL
Flight info
| Callsign | EJU68BZ |
|---|---|
| Flight time | N/A |
| Altitude | 33000 |
| Route | GWC UN859 SOPIL DCT BALAN DCT EVPOK DCT NARAK DCT GAI DCT LOMRA DCT ROCAN DCT PUMAL |
| Aircraft | A20N/M-SDE2E3FGHIRWXY/LB1 |
Departure
| Time | 2026-05-07 08:13 |
|---|---|
| Airport | Southampton Airport (EGHI) |
Arrival
| Time | N/A |
|---|---|
| Airport | Josep Tarradellas Barcelona-El Prat Airport (LEBL) |
| Time | Latitude | Longitude | Altitude | Speed | Heading |
|---|---|---|---|---|---|
| 2026-05-07 07:43 | 50.94970 | -1.36119 | 47 ft | 0 kts | 20° |
| 2026-05-07 08:04 | 50.94967 | -1.36120 | 47 ft | 2 kts | 20° |
| 2026-05-07 08:04 | 50.94951 | -1.36130 | 48 ft | 2 kts | 20° |
| 2026-05-07 08:05 | 50.94934 | -1.36143 | 48 ft | 2 kts | 49° |
| 2026-05-07 08:05 | 50.94925 | -1.36171 | 47 ft | 2 kts | 84° |
| 2026-05-07 08:05 | 50.94926 | -1.36192 | 47 ft | 1 kts | 108° |
| 2026-05-07 08:05 | 50.94928 | -1.36202 | 47 ft | 0 kts | 111° |
| 2026-05-07 08:08 | 50.94927 | -1.36198 | 48 ft | 1 kts | 111° |
| 2026-05-07 08:09 | 50.94922 | -1.36173 | 48 ft | 2 kts | 111° |
| 2026-05-07 08:09 | 50.94911 | -1.36128 | 48 ft | 4 kts | 110° |
| 2026-05-07 08:09 | 50.94895 | -1.36061 | 48 ft | 6 kts | 114° |
| 2026-05-07 08:09 | 50.94849 | -1.36037 | 48 ft | 7 kts | 192° |
| 2026-05-07 08:10 | 50.94788 | -1.36068 | 48 ft | 9 kts | 199° |
| 2026-05-07 08:10 | 50.94714 | -1.36109 | 48 ft | 10 kts | 200° |
| 2026-05-07 08:10 | 50.94640 | -1.36137 | 48 ft | 9 kts | 172° |
| 2026-05-07 08:10 | 50.94582 | -1.36061 | 48 ft | 10 kts | 110° |
| 2026-05-07 08:11 | 50.94551 | -1.35964 | 48 ft | 8 kts | 159° |
| 2026-05-07 08:11 | 50.94472 | -1.35987 | 48 ft | 10 kts | 200° |
| 2026-05-07 08:11 | 50.94386 | -1.36036 | 48 ft | 11 kts | 200° |
| 2026-05-07 08:11 | 50.94331 | -1.36041 | 48 ft | 5 kts | 163° |
| 2026-05-07 08:12 | 50.94324 | -1.36065 | 48 ft | 5 kts | 354° |
| 2026-05-07 08:12 | 50.94350 | -1.36056 | 48 ft | 0 kts | 20° |
| 2026-05-07 08:12 | 50.94577 | -1.35926 | 48 ft | 73 kts | 19° |
| 2026-05-07 08:12 | 50.95377 | -1.35483 | 48 ft | 142 kts | 19° |
| 2026-05-07 08:13 | 50.96546 | -1.34821 | 477 ft | 159 kts | 21° |
| 2026-05-07 08:13 | 50.97725 | -1.34140 | 1208 ft | 161 kts | 21° |
| 2026-05-07 08:13 | 50.98850 | -1.33391 | 1909 ft | 161 kts | 37° |
| 2026-05-07 08:13 | 50.99423 | -1.31696 | 2283 ft | 175 kts | 90° |
| 2026-05-07 08:14 | 50.98879 | -1.29569 | 2746 ft | 194 kts | 136° |
| 2026-05-07 08:14 | 50.97388 | -1.28404 | 3267 ft | 213 kts | 159° |
| 2026-05-07 08:14 | 50.95959 | -1.26928 | 3675 ft | 234 kts | 123° |
| 2026-05-07 08:14 | 50.95352 | -1.24231 | 4225 ft | 250 kts | 100° |
| 2026-05-07 08:15 | 50.95007 | -1.21255 | 4857 ft | 264 kts | 101° |
| 2026-05-07 08:15 | 50.94578 | -1.18282 | 5694 ft | 269 kts | 104° |
| 2026-05-07 08:15 | 50.94009 | -1.15033 | 6627 ft | 274 kts | 106° |
| 2026-05-07 08:15 | 50.93418 | -1.12012 | 7490 ft | 278 kts | 107° |
| 2026-05-07 08:16 | 50.92767 | -1.08865 | 8401 ft | 281 kts | 108° |
| 2026-05-07 08:16 | 50.92077 | -1.05621 | 9310 ft | 284 kts | 108° |
| 2026-05-07 08:16 | 50.91334 | -1.02181 | 10242 ft | 288 kts | 109° |
| 2026-05-07 08:16 | 50.90577 | -0.98692 | 10872 ft | 301 kts | 109° |
| 2026-05-07 08:17 | 50.89801 | -0.95138 | 11355 ft | 318 kts | 109° |
| 2026-05-07 08:17 | 50.88989 | -0.91432 | 12040 ft | 325 kts | 109° |
| 2026-05-07 08:17 | 50.88138 | -0.87558 | 12895 ft | 329 kts | 109° |
| 2026-05-07 08:17 | 50.87333 | -0.83891 | 13645 ft | 333 kts | 109° |
| 2026-05-07 08:18 | 50.86533 | -0.80262 | 14385 ft | 336 kts | 110° |
| 2026-05-07 08:18 | 50.85545 | -0.76888 | 15036 ft | 339 kts | 124° |
| 2026-05-07 08:18 | 50.83980 | -0.74098 | 15683 ft | 342 kts | 141° |
| 2026-05-07 08:18 | 50.82036 | -0.71955 | 16316 ft | 345 kts | 147° |
| 2026-05-07 08:19 | 50.79946 | -0.69860 | 16947 ft | 349 kts | 148° |
| 2026-05-07 08:19 | 50.77898 | -0.67822 | 17558 ft | 353 kts | 148° |
| 2026-05-07 08:19 | 50.75808 | -0.65730 | 18157 ft | 357 kts | 148° |
| 2026-05-07 08:19 | 50.73732 | -0.63642 | 18723 ft | 360 kts | 148° |
| 2026-05-07 08:20 | 50.71564 | -0.61456 | 19311 ft | 364 kts | 148° |
| 2026-05-07 08:20 | 50.69438 | -0.59308 | 19874 ft | 367 kts | 148° |
| 2026-05-07 08:20 | 50.67281 | -0.57129 | 20426 ft | 371 kts | 148° |
| 2026-05-07 08:20 | 50.65065 | -0.54890 | 20980 ft | 374 kts | 148° |
| 2026-05-07 08:21 | 50.62821 | -0.52624 | 21518 ft | 378 kts | 148° |
| 2026-05-07 08:21 | 50.60628 | -0.50411 | 22049 ft | 380 kts | 148° |
| 2026-05-07 08:21 | 50.58394 | -0.48159 | 22572 ft | 383 kts | 148° |
| 2026-05-07 08:21 | 50.56137 | -0.45887 | 23080 ft | 386 kts | 148° |
| 2026-05-07 08:22 | 50.53816 | -0.43552 | 23591 ft | 389 kts | 148° |
| 2026-05-07 08:22 | 50.51530 | -0.41257 | 24076 ft | 391 kts | 148° |
| 2026-05-07 08:22 | 50.49227 | -0.38947 | 24532 ft | 394 kts | 148° |
| 2026-05-07 08:22 | 50.46934 | -0.36648 | 24967 ft | 397 kts | 148° |
| 2026-05-07 08:23 | 50.44553 | -0.34266 | 25415 ft | 400 kts | 148° |
| 2026-05-07 08:23 | 50.42152 | -0.31865 | 25846 ft | 403 kts | 149° |
| 2026-05-07 08:23 | 50.39754 | -0.29470 | 26250 ft | 406 kts | 149° |
| 2026-05-07 08:23 | 50.37231 | -0.26953 | 26661 ft | 409 kts | 149° |
| 2026-05-07 08:24 | 50.34615 | -0.24347 | 27072 ft | 412 kts | 149° |
| 2026-05-07 08:24 | 50.31997 | -0.21742 | 27465 ft | 415 kts | 149° |
| 2026-05-07 08:24 | 50.29297 | -0.19059 | 27859 ft | 417 kts | 149° |
| 2026-05-07 08:24 | 50.26602 | -0.16385 | 28244 ft | 420 kts | 149° |
| 2026-05-07 08:25 | 50.23906 | -0.13714 | 28620 ft | 422 kts | 149° |
| 2026-05-07 08:25 | 50.21100 | -0.10935 | 29005 ft | 425 kts | 149° |
| 2026-05-07 08:25 | 50.18257 | -0.08127 | 29373 ft | 427 kts | 149° |
| 2026-05-07 08:25 | 50.15486 | -0.05395 | 29715 ft | 429 kts | 149° |
| 2026-05-07 08:26 | 50.09561 | -0.00590 | 30362 ft | 432 kts | 159° |
| 2026-05-07 08:26 | 50.06623 | 0.01150 | 30739 ft | 431 kts | 163° |
| 2026-05-07 08:26 | 50.03508 | 0.02586 | 31169 ft | 429 kts | 167° |
| 2026-05-07 08:27 | 50.00209 | 0.03881 | 31584 ft | 428 kts | 167° |
| 2026-05-07 08:27 | 49.96932 | 0.05161 | 31968 ft | 428 kts | 167° |
| 2026-05-07 08:27 | 49.93801 | 0.06386 | 32325 ft | 427 kts | 167° |
| 2026-05-07 08:27 | 49.90593 | 0.07644 | 32687 ft | 427 kts | 167° |
| 2026-05-07 08:28 | 49.87421 | 0.08888 | 33049 ft | 426 kts | 167° |
| 2026-05-07 08:28 | 49.84178 | 0.10160 | 33409 ft | 424 kts | 167° |
| 2026-05-07 08:28 | 49.81005 | 0.11403 | 33741 ft | 424 kts | 167° |
| 2026-05-07 08:28 | 49.77742 | 0.12679 | 34072 ft | 423 kts | 167° |
| 2026-05-07 08:29 | 49.74433 | 0.13972 | 34384 ft | 422 kts | 167° |
| 2026-05-07 08:29 | 49.71195 | 0.15233 | 34679 ft | 422 kts | 167° |
| 2026-05-07 08:29 | 49.67941 | 0.16501 | 34970 ft | 421 kts | 167° |
| 2026-05-07 08:29 | 49.64675 | 0.17806 | 35166 ft | 421 kts | 167° |
| 2026-05-07 08:30 | 49.61419 | 0.19122 | 35393 ft | 421 kts | 166° |
| 2026-05-07 08:30 | 49.58238 | 0.20407 | 35439 ft | 422 kts | 166° |
| 2026-05-07 08:30 | 49.54975 | 0.21722 | 35570 ft | 423 kts | 167° |
| 2026-05-07 08:30 | 49.51693 | 0.23042 | 35695 ft | 424 kts | 167° |
| 2026-05-07 08:31 | 49.48466 | 0.24338 | 35817 ft | 424 kts | 167° |
| 2026-05-07 08:31 | 49.45208 | 0.25642 | 35931 ft | 425 kts | 167° |
| 2026-05-07 08:31 | 49.41918 | 0.26959 | 36042 ft | 426 kts | 167° |
| 2026-05-07 08:31 | 49.38593 | 0.28288 | 36153 ft | 426 kts | 166° |
| 2026-05-07 08:32 | 49.35386 | 0.29569 | 36258 ft | 427 kts | 167° |
| 2026-05-07 08:32 | 49.32148 | 0.30860 | 36369 ft | 428 kts | 167° |
| 2026-05-07 08:32 | 49.28859 | 0.32196 | 36504 ft | 429 kts | 166° |
| 2026-05-07 08:32 | 49.25628 | 0.33557 | 36624 ft | 429 kts | 166° |
| 2026-05-07 08:33 | 49.22326 | 0.34957 | 36760 ft | 430 kts | 166° |
| 2026-05-07 08:33 | 49.18985 | 0.36369 | 36884 ft | 431 kts | 166° |
| 2026-05-07 08:33 | 49.15621 | 0.37787 | 37016 ft | 432 kts | 166° |
| 2026-05-07 08:33 | 49.12381 | 0.39149 | 37037 ft | 433 kts | 166° |
| 2026-05-07 08:34 | 49.05901 | 0.41866 | 37045 ft | 433 kts | 166° |
| 2026-05-07 08:34 | 48.99439 | 0.44568 | 37040 ft | 433 kts | 166° |
| 2026-05-07 08:35 | 48.92681 | 0.47386 | 37035 ft | 433 kts | 166° |
| 2026-05-07 08:35 | 48.86462 | 0.49973 | 37029 ft | 434 kts | 166° |
| 2026-05-07 08:36 | 48.79779 | 0.52743 | 37023 ft | 434 kts | 166° |
| 2026-05-07 08:36 | 48.73150 | 0.55379 | 37018 ft | 433 kts | 167° |
| 2026-05-07 08:37 | 48.66558 | 0.57947 | 37016 ft | 433 kts | 167° |
| 2026-05-07 08:37 | 48.59910 | 0.60544 | 37032 ft | 433 kts | 167° |
| 2026-05-07 08:38 | 48.53298 | 0.63122 | 37036 ft | 433 kts | 167° |
| 2026-05-07 08:38 | 48.46831 | 0.65715 | 37042 ft | 433 kts | 167° |
| 2026-05-07 08:39 | 48.40382 | 0.68349 | 37037 ft | 433 kts | 167° |
| 2026-05-07 08:39 | 48.33710 | 0.71060 | 37042 ft | 433 kts | 167° |
| 2026-05-07 08:40 | 48.27056 | 0.73751 | 37047 ft | 433 kts | 167° |
| 2026-05-07 08:40 | 48.20358 | 0.76415 | 37043 ft | 432 kts | 167° |
| 2026-05-07 08:41 | 48.13569 | 0.79075 | 37035 ft | 432 kts | 167° |
| 2026-05-07 08:41 | 48.06950 | 0.81669 | 37027 ft | 432 kts | 167° |
| 2026-05-07 08:42 | 48.00259 | 0.84288 | 37028 ft | 432 kts | 167° |
| 2026-05-07 08:42 | 47.93710 | 0.86847 | 37026 ft | 432 kts | 167° |
| 2026-05-07 08:43 | 47.87173 | 0.89396 | 37028 ft | 432 kts | 167° |
| 2026-05-07 08:43 | 47.80621 | 0.91937 | 37025 ft | 432 kts | 167° |
| 2026-05-07 08:44 | 47.74111 | 0.94453 | 37026 ft | 432 kts | 167° |
| 2026-05-07 08:44 | 47.67476 | 0.97016 | 37032 ft | 432 kts | 167° |
| 2026-05-07 08:45 | 47.60942 | 0.99535 | 37038 ft | 431 kts | 167° |
| 2026-05-07 08:45 | 47.54275 | 1.02099 | 37037 ft | 431 kts | 167° |
| 2026-05-07 08:46 | 47.47671 | 1.04566 | 37036 ft | 431 kts | 170° |
| 2026-05-07 08:46 | 47.40853 | 1.06063 | 37037 ft | 429 kts | 178° |
| 2026-05-07 08:47 | 47.34163 | 1.06253 | 37038 ft | 427 kts | 183° |
| 2026-05-07 08:47 | 47.27539 | 1.06090 | 37028 ft | 426 kts | 183° |
| 2026-05-07 08:48 | 47.20759 | 1.05934 | 37032 ft | 426 kts | 183° |
| 2026-05-07 08:48 | 47.14057 | 1.05780 | 37028 ft | 426 kts | 183° |
| 2026-05-07 08:49 | 47.07276 | 1.05626 | 37025 ft | 426 kts | 183° |
| 2026-05-07 08:49 | 47.00596 | 1.05452 | 37029 ft | 425 kts | 184° |
| 2026-05-07 08:50 | 46.93904 | 1.05156 | 37019 ft | 425 kts | 184° |
| 2026-05-07 08:50 | 46.87466 | 1.04870 | 37010 ft | 425 kts | 184° |
| 2026-05-07 08:51 | 46.80851 | 1.04585 | 37015 ft | 424 kts | 184° |
| 2026-05-07 08:51 | 46.74215 | 1.04303 | 37022 ft | 424 kts | 184° |
| 2026-05-07 08:52 | 46.67660 | 1.04028 | 37021 ft | 424 kts | 184° |
| 2026-05-07 08:52 | 46.61055 | 1.03750 | 37020 ft | 424 kts | 184° |
| 2026-05-07 08:53 | 46.54558 | 1.03666 | 37022 ft | 425 kts | 180° |
| 2026-05-07 08:53 | 46.47885 | 1.04691 | 37022 ft | 428 kts | 172° |
| 2026-05-07 08:54 | 46.41377 | 1.06757 | 37016 ft | 429 kts | 169° |
| 2026-05-07 08:54 | 46.34797 | 1.08959 | 37003 ft | 429 kts | 169° |
| 2026-05-07 08:55 | 46.28314 | 1.11119 | 37005 ft | 429 kts | 169° |
| 2026-05-07 08:55 | 46.21905 | 1.13250 | 36998 ft | 430 kts | 170° |
| 2026-05-07 08:56 | 46.15337 | 1.15425 | 37001 ft | 429 kts | 170° |
| 2026-05-07 08:56 | 46.08984 | 1.17526 | 36994 ft | 428 kts | 170° |
| 2026-05-07 08:57 | 46.02560 | 1.19644 | 36997 ft | 428 kts | 169° |
| 2026-05-07 08:57 | 45.96238 | 1.21726 | 37005 ft | 428 kts | 170° |
| 2026-05-07 08:58 | 45.89880 | 1.23815 | 37012 ft | 429 kts | 170° |
| 2026-05-07 08:58 | 45.83821 | 1.25801 | 37020 ft | 429 kts | 170° |
| 2026-05-07 08:59 | 45.77657 | 1.27814 | 37015 ft | 428 kts | 170° |
| 2026-05-07 08:59 | 45.71503 | 1.29820 | 37016 ft | 428 kts | 170° |
| 2026-05-07 09:00 | 45.65336 | 1.31827 | 37012 ft | 428 kts | 170° |
| 2026-05-07 09:00 | 45.59409 | 1.33755 | 37009 ft | 427 kts | 170° |
| 2026-05-07 09:01 | 45.53606 | 1.35639 | 37003 ft | 427 kts | 171° |
| 2026-05-07 09:01 | 45.47864 | 1.37494 | 37003 ft | 427 kts | 171° |
| 2026-05-07 09:02 | 45.42072 | 1.39357 | 37004 ft | 427 kts | 171° |
| 2026-05-07 09:02 | 45.36278 | 1.41218 | 37007 ft | 426 kts | 171° |
| 2026-05-07 09:03 | 45.30513 | 1.43068 | 37014 ft | 426 kts | 171° |
| 2026-05-07 09:03 | 45.24733 | 1.44920 | 37019 ft | 426 kts | 171° |
| 2026-05-07 09:04 | 45.18966 | 1.46765 | 37022 ft | 426 kts | 171° |
| 2026-05-07 09:04 | 45.13243 | 1.48591 | 37020 ft | 426 kts | 171° |
| 2026-05-07 09:05 | 45.07460 | 1.50435 | 37027 ft | 426 kts | 171° |
| 2026-05-07 09:05 | 45.01692 | 1.52268 | 37025 ft | 425 kts | 171° |
| 2026-05-07 09:06 | 44.95948 | 1.54089 | 37022 ft | 425 kts | 171° |
| 2026-05-07 09:06 | 44.90158 | 1.55921 | 37021 ft | 425 kts | 171° |
| 2026-05-07 09:07 | 44.84366 | 1.57749 | 37020 ft | 425 kts | 171° |
| 2026-05-07 09:07 | 44.78604 | 1.59568 | 37012 ft | 425 kts | 171° |
| 2026-05-07 09:08 | 44.72830 | 1.61385 | 37012 ft | 425 kts | 171° |
| 2026-05-07 09:08 | 44.67024 | 1.63207 | 37019 ft | 425 kts | 171° |
| 2026-05-07 09:09 | 44.61201 | 1.65031 | 37022 ft | 426 kts | 172° |
| 2026-05-07 09:09 | 44.55353 | 1.66862 | 37020 ft | 425 kts | 172° |
| 2026-05-07 09:10 | 44.49515 | 1.68684 | 37019 ft | 424 kts | 172° |
| 2026-05-07 09:10 | 44.43628 | 1.70521 | 37023 ft | 423 kts | 172° |
| 2026-05-07 09:11 | 44.37727 | 1.72357 | 37023 ft | 423 kts | 172° |
| 2026-05-07 09:11 | 44.31825 | 1.74189 | 37014 ft | 422 kts | 172° |
| 2026-05-07 09:12 | 44.25919 | 1.75694 | 37006 ft | 420 kts | 175° |
| 2026-05-07 09:12 | 44.19917 | 1.77021 | 37005 ft | 421 kts | 175° |
| 2026-05-07 09:13 | 44.13966 | 1.78339 | 37004 ft | 422 kts | 175° |
| 2026-05-07 09:13 | 44.07899 | 1.79679 | 37007 ft | 421 kts | 175° |